sensor_id;sensor_type;location;lat;lon;timestamp;temperature;humidity
36280;DHT22;22317;47.936;12.742;2023-01-04T00:02:06;3.80;62.80
36280;DHT22;22317;47.936;12.742;2023-01-04T00:04:31;3.80;62.80
36280;DHT22;22317;47.936;12.742;2023-01-04T00:06:57;3.80;62.90
36280;DHT22;22317;47.936;12.742;2023-01-04T00:09:23;3.80;62.80
36280;DHT22;22317;47.936;12.742;2023-01-04T00:11:49;3.80;62.70
36280;DHT22;22317;47.936;12.742;2023-01-04T00:14:14;3.70;62.60
36280;DHT22;22317;47.936;12.742;2023-01-04T00:16:43;3.70;62.70
36280;DHT22;22317;47.936;12.742;2023-01-04T00:19:10;3.70;62.70
36280;DHT22;22317;47.936;12.742;2023-01-04T00:21:36;3.70;62.90
36280;DHT22;22317;47.936;12.742;2023-01-04T00:24:02;3.70;62.90
36280;DHT22;22317;47.936;12.742;2023-01-04T00:26:30;3.70;63.00
36280;DHT22;22317;47.936;12.742;2023-01-04T00:28:59;3.70;63.10
36280;DHT22;22317;47.936;12.742;2023-01-04T00:31:26;3.80;63.10
36280;DHT22;22317;47.936;12.742;2023-01-04T00:33:53;3.80;63.10
36280;DHT22;22317;47.936;12.742;2023-01-04T00:36:20;3.80;63.20
36280;DHT22;22317;47.936;12.742;2023-01-04T00:38:46;3.80;63.20
36280;DHT22;22317;47.936;12.742;2023-01-04T00:41:14;3.80;63.10
36280;DHT22;22317;47.936;12.742;2023-01-04T00:43:39;3.80;63.00
36280;DHT22;22317;47.936;12.742;2023-01-04T00:46:05;3.80;63.00
36280;DHT22;22317;47.936;12.742;2023-01-04T00:48:35;3.80;63.00
36280;DHT22;22317;47.936;12.742;2023-01-04T00:51:01;3.80;63.20
36280;DHT22;22317;47.936;12.742;2023-01-04T00:53:27;3.80;63.20
36280;DHT22;22317;47.936;12.742;2023-01-04T00:55:58;3.90;63.20
36280;DHT22;22317;47.936;12.742;2023-01-04T00:58:25;3.90;63.30
36280;DHT22;22317;47.936;12.742;2023-01-04T01:00:50;3.90;63.20
36280;DHT22;22317;47.936;12.742;2023-01-04T01:03:16;3.80;63.10
36280;DHT22;22317;47.936;12.742;2023-01-04T01:05:42;3.90;63.10
36280;DHT22;22317;47.936;12.742;2023-01-04T01:08:09;3.90;63.00
36280;DHT22;22317;47.936;12.742;2023-01-04T01:10:51;3.90;63.10
36280;DHT22;22317;47.936;12.742;2023-01-04T01:13:17;3.80;63.00
36280;DHT22;22317;47.936;12.742;2023-01-04T01:15:43;3.80;63.00
36280;DHT22;22317;47.936;12.742;2023-01-04T01:18:09;3.80;63.10
36280;DHT22;22317;47.936;12.742;2023-01-04T01:20:40;3.90;63.20
36280;DHT22;22317;47.936;12.742;2023-01-04T01:23:06;3.90;63.10
36280;DHT22;22317;47.936;12.742;2023-01-04T01:25:33;3.90;63.00
36280;DHT22;22317;47.936;12.742;2023-01-04T01:27:58;3.90;63.10
36280;DHT22;22317;47.936;12.742;2023-01-04T01:30:24;3.90;63.00
36280;DHT22;22317;47.936;12.742;2023-01-04T01:32:50;3.90;62.90
36280;DHT22;22317;47.936;12.742;2023-01-04T01:35:16;3.90;62.90
36280;DHT22;22317;47.936;12.742;2023-01-04T01:37:42;3.90;63.00
36280;DHT22;22317;47.936;12.742;2023-01-04T01:40:08;3.90;63.10
36280;DHT22;22317;47.936;12.742;2023-01-04T01:42:34;3.90;63.10
36280;DHT22;22317;47.936;12.742;2023-01-04T01:45:02;3.90;63.10
36280;DHT22;22317;47.936;12.742;2023-01-04T01:47:43;3.90;63.00
36280;DHT22;22317;47.936;12.742;2023-01-04T01:50:21;3.90;63.00
36280;DHT22;22317;47.936;12.742;2023-01-04T01:52:50;3.90;63.00
36280;DHT22;22317;47.936;12.742;2023-01-04T01:55:16;3.90;63.00
36280;DHT22;22317;47.936;12.742;2023-01-04T01:57:43;3.90;62.90
36280;DHT22;22317;47.936;12.742;2023-01-04T02:00:13;3.90;62.90
36280;DHT22;22317;47.936;12.742;2023-01-04T02:02:48;3.80;62.80
36280;DHT22;22317;47.936;12.742;2023-01-04T02:05:18;3.90;62.90
36280;DHT22;22317;47.936;12.742;2023-01-04T02:07:46;3.90;62.80
36280;DHT22;22317;47.936;12.742;2023-01-04T02:10:12;3.90;62.80
36280;DHT22;22317;47.936;12.742;2023-01-04T02:12:39;3.90;62.70
36280;DHT22;22317;47.936;12.742;2023-01-04T02:15:05;3.80;62.70
36280;DHT22;22317;47.936;12.742;2023-01-04T02:17:33;3.80;62.70
36280;DHT22;22317;47.936;12.742;2023-01-04T02:28:54;3.80;62.80
36280;DHT22;22317;47.936;12.742;2023-01-04T02:34:15;3.80;62.70
36280;DHT22;22317;47.936;12.742;2023-01-04T02:45:18;3.70;62.80
36280;DHT22;22317;47.936;12.742;2023-01-04T02:47:45;3.70;62.80
36280;DHT22;22317;47.936;12.742;2023-01-04T02:51:21;3.70;62.80
36280;DHT22;22317;47.936;12.742;2023-01-04T02:53:25;3.70;62.80
36280;DHT22;22317;47.936;12.742;2023-01-04T03:05:40;3.70;62.80
36280;DHT22;22317;47.936;12.742;2023-01-04T03:11:24;3.60;62.90
36280;DHT22;22317;47.936;12.742;2023-01-04T03:14:19;3.70;62.90
36280;DHT22;22317;47.936;12.742;2023-01-04T03:16:47;3.70;62.90
36280;DHT22;22317;47.936;12.742;2023-01-04T03:19:17;3.70;62.90
36280;DHT22;22317;47.936;12.742;2023-01-04T03:22:05;3.70;62.90
36280;DHT22;22317;47.936;12.742;2023-01-04T03:24:52;3.70;63.00
36280;DHT22;22317;47.936;12.742;2023-01-04T03:27:38;3.70;63.10
36280;DHT22;22317;47.936;12.742;2023-01-04T03:30:26;3.70;63.00
36280;DHT22;22317;47.936;12.742;2023-01-04T03:33:14;3.70;63.00
36280;DHT22;22317;47.936;12.742;2023-01-04T03:36:19;3.70;63.10
36280;DHT22;22317;47.936;12.742;2023-01-04T03:39:00;3.70;63.10
36280;DHT22;22317;47.936;12.742;2023-01-04T03:41:55;3.70;63.00
36280;DHT22;22317;47.936;12.742;2023-01-04T03:47:52;3.60;62.80
36280;DHT22;22317;47.936;12.742;2023-01-04T03:50:46;3.60;63.00
36280;DHT22;22317;47.936;12.742;2023-01-04T03:53:12;3.50;62.90
36280;DHT22;22317;47.936;12.742;2023-01-04T03:55:40;3.50;62.80
36280;DHT22;22317;47.936;12.742;2023-01-04T03:58:06;3.50;63.00
36280;DHT22;22317;47.936;12.742;2023-01-04T04:00:32;3.40;63.10
36280;DHT22;22317;47.936;12.742;2023-01-04T04:02:58;3.40;63.20
36280;DHT22;22317;47.936;12.742;2023-01-04T04:05:41;3.40;63.20
36280;DHT22;22317;47.936;12.742;2023-01-04T04:08:26;3.40;63.20
36280;DHT22;22317;47.936;12.742;2023-01-04T04:10:57;3.30;63.10
36280;DHT22;22317;47.936;12.742;2023-01-04T04:13:47;3.30;63.10
36280;DHT22;22317;47.936;12.742;2023-01-04T04:16:13;3.20;63.10
36280;DHT22;22317;47.936;12.742;2023-01-04T04:18:39;3.20;63.00
36280;DHT22;22317;47.936;12.742;2023-01-04T04:21:05;3.20;63.10
36280;DHT22;22317;47.936;12.742;2023-01-04T04:23:30;3.20;63.20
36280;DHT22;22317;47.936;12.742;2023-01-04T04:25:56;3.20;63.20
36280;DHT22;22317;47.936;12.742;2023-01-04T04:28:22;3.30;63.30
36280;DHT22;22317;47.936;12.742;2023-01-04T04:30:48;3.10;63.20
36280;DHT22;22317;47.936;12.742;2023-01-04T04:33:14;3.10;63.20
36280;DHT22;22317;47.936;12.742;2023-01-04T04:35:40;3.10;63.10
36280;DHT22;22317;47.936;12.742;2023-01-04T04:38:06;3.10;63.10
36280;DHT22;22317;47.936;12.742;2023-01-04T04:40:32;3.00;62.90
36280;DHT22;22317;47.936;12.742;2023-01-04T04:43:16;3.00;62.90
36280;DHT22;22317;47.936;12.742;2023-01-04T04:45:41;3.10;63.00
36280;DHT22;22317;47.936;12.742;2023-01-04T04:48:07;2.90;62.90
36280;DHT22;22317;47.936;12.742;2023-01-04T04:50:33;2.90;62.90
36280;DHT22;22317;47.936;12.742;2023-01-04T04:52:58;2.80;62.80
36280;DHT22;22317;47.936;12.742;2023-01-04T04:55:24;2.80;62.70
36280;DHT22;22317;47.936;12.742;2023-01-04T04:57:50;2.80;62.80
36280;DHT22;22317;47.936;12.742;2023-01-04T05:00:16;2.70;62.70
36280;DHT22;22317;47.936;12.742;2023-01-04T05:02:42;2.70;62.80
36280;DHT22;22317;47.936;12.742;2023-01-04T05:05:08;2.60;62.60
36280;DHT22;22317;47.936;12.742;2023-01-04T05:07:33;2.60;62.60
36280;DHT22;22317;47.936;12.742;2023-01-04T05:09:59;2.50;62.60
36280;DHT22;22317;47.936;12.742;2023-01-04T05:12:25;2.50;62.70
36280;DHT22;22317;47.936;12.742;2023-01-04T05:15:10;2.60;62.80
36280;DHT22;22317;47.936;12.742;2023-01-04T05:17:36;2.40;62.50
36280;DHT22;22317;47.936;12.742;2023-01-04T05:20:02;2.50;62.70
36280;DHT22;22317;47.936;12.742;2023-01-04T05:22:28;2.40;62.70
36280;DHT22;22317;47.936;12.742;2023-01-04T05:24:53;2.30;62.60
36280;DHT22;22317;47.936;12.742;2023-01-04T05:27:19;2.30;62.60
36280;DHT22;22317;47.936;12.742;2023-01-04T05:29:45;2.20;62.50
36280;DHT22;22317;47.936;12.742;2023-01-04T05:32:29;4.10;63.60
36280;DHT22;22317;47.936;12.742;2023-01-04T05:34:55;2.20;62.50
36280;DHT22;22317;47.936;12.742;2023-01-04T05:37:21;2.20;62.40
36280;DHT22;22317;47.936;12.742;2023-01-04T05:39:46;2.10;62.30
36280;DHT22;22317;47.936;12.742;2023-01-04T05:42:12;2.00;62.20
36280;DHT22;22317;47.936;12.742;2023-01-04T05:44:51;2.00;62.20
36280;DHT22;22317;47.936;12.742;2023-01-04T05:47:17;1.90;62.10
36280;DHT22;22317;47.936;12.742;2023-01-04T05:49:43;1.90;62.10
36280;DHT22;22317;47.936;12.742;2023-01-04T05:52:08;1.80;62.10
36280;DHT22;22317;47.936;12.742;2023-01-04T05:54:34;1.80;62.10
36280;DHT22;22317;47.936;12.742;2023-01-04T05:57:00;1.70;62.20
36280;DHT22;22317;47.936;12.742;2023-01-04T05:59:26;1.70;62.30
36280;DHT22;22317;47.936;12.742;2023-01-04T06:01:51;1.70;62.30
36280;DHT22;22317;47.936;12.742;2023-01-04T06:04:17;1.60;62.20
36280;DHT22;22317;47.936;12.742;2023-01-04T06:06:44;1.60;62.20
36280;DHT22;22317;47.936;12.742;2023-01-04T06:09:10;1.50;62.10
36280;DHT22;22317;47.936;12.742;2023-01-04T06:11:36;1.50;62.10
36280;DHT22;22317;47.936;12.742;2023-01-04T06:14:02;1.50;62.30
36280;DHT22;22317;47.936;12.742;2023-01-04T06:16:28;1.40;62.30
36280;DHT22;22317;47.936;12.742;2023-01-04T06:18:53;1.50;62.40
36280;DHT22;22317;47.936;12.742;2023-01-04T06:21:19;1.40;62.40
36280;DHT22;22317;47.936;12.742;2023-01-04T06:23:45;1.40;62.40
36280;DHT22;22317;47.936;12.742;2023-01-04T06:26:11;1.40;62.40
36280;DHT22;22317;47.936;12.742;2023-01-04T06:28:37;1.40;62.40
36280;DHT22;22317;47.936;12.742;2023-01-04T06:31:04;1.40;62.40
36280;DHT22;22317;47.936;12.742;2023-01-04T06:33:30;1.40;62.40
36280;DHT22;22317;47.936;12.742;2023-01-04T06:35:56;1.40;62.50
36280;DHT22;22317;47.936;12.742;2023-01-04T06:38:22;1.30;62.30
36280;DHT22;22317;47.936;12.742;2023-01-04T06:40:48;1.40;62.40
36280;DHT22;22317;47.936;12.742;2023-01-04T06:43:14;1.30;62.30
36280;DHT22;22317;47.936;12.742;2023-01-04T06:45:40;1.30;62.30
36280;DHT22;22317;47.936;12.742;2023-01-04T06:48:06;1.30;62.30
36280;DHT22;22317;47.936;12.742;2023-01-04T06:50:32;1.30;62.20
36280;DHT22;22317;47.936;12.742;2023-01-04T06:52:58;1.30;62.30
36280;DHT22;22317;47.936;12.742;2023-01-04T06:55:23;1.30;62.30
36280;DHT22;22317;47.936;12.742;2023-01-04T06:57:49;1.30;62.10
36280;DHT22;22317;47.936;12.742;2023-01-04T07:00:15;1.20;62.20
36280;DHT22;22317;47.936;12.742;2023-01-04T07:02:41;1.30;62.20
36280;DHT22;22317;47.936;12.742;2023-01-04T07:05:07;1.20;62.10
36280;DHT22;22317;47.936;12.742;2023-01-04T07:07:33;1.20;62.10
36280;DHT22;22317;47.936;12.742;2023-01-04T07:10:00;1.20;62.20
36280;DHT22;22317;47.936;12.742;2023-01-04T07:12:26;1.20;62.30
36280;DHT22;22317;47.936;12.742;2023-01-04T07:14:51;1.20;62.30
36280;DHT22;22317;47.936;12.742;2023-01-04T07:17:17;1.20;62.20
36280;DHT22;22317;47.936;12.742;2023-01-04T07:19:43;1.20;62.20
36280;DHT22;22317;47.936;12.742;2023-01-04T07:22:09;1.20;62.20
36280;DHT22;22317;47.936;12.742;2023-01-04T07:24:34;1.20;62.20
36280;DHT22;22317;47.936;12.742;2023-01-04T07:27:00;1.20;62.30
36280;DHT22;22317;47.936;12.742;2023-01-04T07:29:27;1.20;62.30
36280;DHT22;22317;47.936;12.742;2023-01-04T07:31:53;1.20;62.30
36280;DHT22;22317;47.936;12.742;2023-01-04T07:34:22;1.20;62.20
36280;DHT22;22317;47.936;12.742;2023-01-04T07:36:49;1.20;62.10
36280;DHT22;22317;47.936;12.742;2023-01-04T07:39:16;1.20;62.10
36280;DHT22;22317;47.936;12.742;2023-01-04T07:41:43;1.20;62.00
36280;DHT22;22317;47.936;12.742;2023-01-04T07:44:10;1.20;62.10
36280;DHT22;22317;47.936;12.742;2023-01-04T07:46:37;1.20;62.20
36280;DHT22;22317;47.936;12.742;2023-01-04T07:49:03;1.20;62.30
36280;DHT22;22317;47.936;12.742;2023-01-04T07:51:30;1.20;62.30
36280;DHT22;22317;47.936;12.742;2023-01-04T07:53:56;1.20;62.20
36280;DHT22;22317;47.936;12.742;2023-01-04T07:56:21;1.20;62.30
36280;DHT22;22317;47.936;12.742;2023-01-04T07:58:47;1.20;63.00
36280;DHT22;22317;47.936;12.742;2023-01-04T08:01:17;1.30;62.30
36280;DHT22;22317;47.936;12.742;2023-01-04T08:03:45;1.30;62.30
36280;DHT22;22317;47.936;12.742;2023-01-04T08:06:12;1.30;62.40
36280;DHT22;22317;47.936;12.742;2023-01-04T08:08:38;1.40;62.60
36280;DHT22;22317;47.936;12.742;2023-01-04T08:11:11;1.50;62.70
36280;DHT22;22317;47.936;12.742;2023-01-04T08:13:37;1.60;62.80
36280;DHT22;22317;47.936;12.742;2023-01-04T08:16:03;1.70;62.70
36280;DHT22;22317;47.936;12.742;2023-01-04T08:18:29;1.70;62.80
36280;DHT22;22317;47.936;12.742;2023-01-04T08:21:03;1.80;62.60
36280;DHT22;22317;47.936;12.742;2023-01-04T08:23:29;3.60;63.70
36280;DHT22;22317;47.936;12.742;2023-01-04T08:25:59;2.00;62.70
36280;DHT22;22317;47.936;12.742;2023-01-04T08:28:25;2.10;62.70
36280;DHT22;22317;47.936;12.742;2023-01-04T08:30:51;2.20;63.50
36280;DHT22;22317;47.936;12.742;2023-01-04T08:33:17;2.40;62.90
36280;DHT22;22317;47.936;12.742;2023-01-04T08:35:42;2.50;62.80
36280;DHT22;22317;47.936;12.742;2023-01-04T08:38:08;2.60;62.70
36280;DHT22;22317;47.936;12.742;2023-01-04T08:40:34;2.70;62.60
36280;DHT22;22317;47.936;12.742;2023-01-04T08:43:00;2.90;62.60
36280;DHT22;22317;47.936;12.742;2023-01-04T08:45:25;3.00;62.70
36280;DHT22;22317;47.936;12.742;2023-01-04T08:47:51;3.10;62.70
36280;DHT22;22317;47.936;12.742;2023-01-04T08:50:17;3.40;62.80
36280;DHT22;22317;47.936;12.742;2023-01-04T08:52:45;3.50;62.80
36280;DHT22;22317;47.936;12.742;2023-01-04T08:55:10;3.70;62.80
36280;DHT22;22317;47.936;12.742;2023-01-04T08:57:36;3.90;62.60
36280;DHT22;22317;47.936;12.742;2023-01-04T09:00:03;4.00;62.20
36280;DHT22;22317;47.936;12.742;2023-01-04T09:02:29;4.20;62.30
36280;DHT22;22317;47.936;12.742;2023-01-04T09:04:55;4.30;62.40
36280;DHT22;22317;47.936;12.742;2023-01-04T09:07:27;4.50;62.40
36280;DHT22;22317;47.936;12.742;2023-01-04T09:09:52;4.70;62.30
36280;DHT22;22317;47.936;12.742;2023-01-04T09:12:18;4.90;61.80
36280;DHT22;22317;47.936;12.742;2023-01-04T09:14:44;5.00;61.50
36280;DHT22;22317;47.936;12.742;2023-01-04T09:17:10;5.10;61.10
36280;DHT22;22317;47.936;12.742;2023-01-04T09:19:35;5.20;60.90
36280;DHT22;22317;47.936;12.742;2023-01-04T09:22:01;5.30;61.00
36280;DHT22;22317;47.936;12.742;2023-01-04T09:24:28;5.50;61.20
36280;DHT22;22317;47.936;12.742;2023-01-04T09:26:54;5.70;61.00
36280;DHT22;22317;47.936;12.742;2023-01-04T09:29:19;5.80;60.60
36280;DHT22;22317;47.936;12.742;2023-01-04T09:31:45;5.90;60.50
36280;DHT22;22317;47.936;12.742;2023-01-04T09:34:11;6.10;60.50
36280;DHT22;22317;47.936;12.742;2023-01-04T09:36:37;6.20;60.40
36280;DHT22;22317;47.936;12.742;2023-01-04T09:39:03;6.40;60.50
36280;DHT22;22317;47.936;12.742;2023-01-04T09:41:33;6.60;60.60
36280;DHT22;22317;47.936;12.742;2023-01-04T09:46:47;6.90;59.50
36280;DHT22;22317;47.936;12.742;2023-01-04T09:49:22;7.00;59.20
36280;DHT22;22317;47.936;12.742;2023-01-04T09:51:59;7.00;58.90
36280;DHT22;22317;47.936;12.742;2023-01-04T09:54:33;7.10;58.90
36280;DHT22;22317;47.936;12.742;2023-01-04T09:57:02;7.10;58.80
36280;DHT22;22317;47.936;12.742;2023-01-04T09:59:32;7.20;59.00
36280;DHT22;22317;47.936;12.742;2023-01-04T10:02:09;7.40;58.90
36280;DHT22;22317;47.936;12.742;2023-01-04T10:07:04;7.80;59.10
36280;DHT22;22317;47.936;12.742;2023-01-04T10:09:33;8.00;59.00
36280;DHT22;22317;47.936;12.742;2023-01-04T10:28:51;10.40;57.10
36280;DHT22;22317;47.936;12.742;2023-01-04T10:31:27;10.60;55.50
36280;DHT22;22317;47.936;12.742;2023-01-04T10:36:30;10.50;54.50
36280;DHT22;22317;47.936;12.742;2023-01-04T10:39:05;10.50;54.40
36280;DHT22;22317;47.936;12.742;2023-01-04T10:41:41;10.60;54.60
36280;DHT22;22317;47.936;12.742;2023-01-04T10:47:17;10.90;54.30
36280;DHT22;22317;47.936;12.742;2023-01-04T10:49:59;11.10;53.50
36280;DHT22;22317;47.936;12.742;2023-01-04T10:52:38;11.20;53.60
36280;DHT22;22317;47.936;12.742;2023-01-04T10:55:25;11.40;54.20
36280;DHT22;22317;47.936;12.742;2023-01-04T10:58:01;11.60;53.50
36280;DHT22;22317;47.936;12.742;2023-01-04T11:00:40;11.70;53.10
36280;DHT22;22317;47.936;12.742;2023-01-04T11:03:17;12.00;52.80
36280;DHT22;22317;47.936;12.742;2023-01-04T11:06:00;12.10;52.30
36280;DHT22;22317;47.936;12.742;2023-01-04T11:09:04;12.30;51.70
36280;DHT22;22317;47.936;12.742;2023-01-04T11:11:55;12.40;51.50
36280;DHT22;22317;47.936;12.742;2023-01-04T11:14:21;12.50;51.30
36280;DHT22;22317;47.936;12.742;2023-01-04T11:16:51;12.50;51.40
36280;DHT22;22317;47.936;12.742;2023-01-04T11:19:19;12.50;51.10
36280;DHT22;22317;47.936;12.742;2023-01-04T11:22:21;12.50;50.80
36280;DHT22;22317;47.936;12.742;2023-01-04T11:24:52;12.40;50.00
36280;DHT22;22317;47.936;12.742;2023-01-04T11:27:25;12.30;50.00
36280;DHT22;22317;47.936;12.742;2023-01-04T11:32:45;12.00;49.20
36280;DHT22;22317;47.936;12.742;2023-01-04T11:35:12;11.80;50.00
36280;DHT22;22317;47.936;12.742;2023-01-04T11:37:39;11.60;49.40
36280;DHT22;22317;47.936;12.742;2023-01-04T11:40:24;11.40;49.20
36280;DHT22;22317;47.936;12.742;2023-01-04T11:43:14;11.20;49.30
36280;DHT22;22317;47.936;12.742;2023-01-04T11:45:52;11.10;49.50
36280;DHT22;22317;47.936;12.742;2023-01-04T11:48:19;10.90;49.80
36280;DHT22;22317;47.936;12.742;2023-01-04T11:50:55;10.90;50.00
36280;DHT22;22317;47.936;12.742;2023-01-04T11:53:36;10.90;50.10
36280;DHT22;22317;47.936;12.742;2023-01-04T11:56:12;10.90;50.00
36280;DHT22;22317;47.936;12.742;2023-01-04T11:58:39;10.90;51.00
36280;DHT22;22317;47.936;12.742;2023-01-04T12:01:22;10.90;50.50
36280;DHT22;22317;47.936;12.742;2023-01-04T12:03:48;10.90;50.30
36280;DHT22;22317;47.936;12.742;2023-01-04T12:06:45;11.00;50.40
36280;DHT22;22317;47.936;12.742;2023-01-04T12:09:14;11.00;50.30
36280;DHT22;22317;47.936;12.742;2023-01-04T12:11:47;11.00;50.30
36280;DHT22;22317;47.936;12.742;2023-01-04T12:19:25;10.70;50.20
36280;DHT22;22317;47.936;12.742;2023-01-04T12:21:58;10.60;50.30
36280;DHT22;22317;47.936;12.742;2023-01-04T12:24:27;10.40;50.30
36280;DHT22;22317;47.936;12.742;2023-01-04T12:26:54;10.30;50.50
36280;DHT22;22317;47.936;12.742;2023-01-04T12:31:50;10.10;50.70
36280;DHT22;22317;47.936;12.742;2023-01-04T12:36:59;9.90;51.00
36280;DHT22;22317;47.936;12.742;2023-01-04T12:39:39;9.80;51.30
36280;DHT22;22317;47.936;12.742;2023-01-04T12:42:15;9.70;51.50
36280;DHT22;22317;47.936;12.742;2023-01-04T12:50:03;9.30;51.10
36280;DHT22;22317;47.936;12.742;2023-01-04T12:55:03;9.10;51.30
36280;DHT22;22317;47.936;12.742;2023-01-04T12:57:37;9.00;51.50
36280;DHT22;22317;47.936;12.742;2023-01-04T13:00:07;9.00;51.60
36280;DHT22;22317;47.936;12.742;2023-01-04T13:02:41;8.40;51.50
36280;DHT22;22317;47.936;12.742;2023-01-04T13:10:37;8.80;51.80
36280;DHT22;22317;47.936;12.742;2023-01-04T13:13:27;8.80;52.30
36280;DHT22;22317;47.936;12.742;2023-01-04T13:18:53;8.80;52.40
36280;DHT22;22317;47.936;12.742;2023-01-04T13:21:37;8.70;52.30
36280;DHT22;22317;47.936;12.742;2023-01-04T13:24:23;8.60;52.40
36280;DHT22;22317;47.936;12.742;2023-01-04T13:26:52;8.60;52.60
36280;DHT22;22317;47.936;12.742;2023-01-04T13:29:26;8.60;52.60
36280;DHT22;22317;47.936;12.742;2023-01-04T13:42:40;8.40;53.40
36280;DHT22;22317;47.936;12.742;2023-01-04T13:47:44;8.30;53.60
36280;DHT22;22317;47.936;12.742;2023-01-04T13:50:28;8.20;53.60
36280;DHT22;22317;47.936;12.742;2023-01-04T13:52:55;8.20;53.80
36280;DHT22;22317;47.936;12.742;2023-01-04T13:55:31;8.10;54.00
36280;DHT22;22317;47.936;12.742;2023-01-04T13:58:16;8.20;54.20
36280;DHT22;22317;47.936;12.742;2023-01-04T14:00:48;8.20;54.30
36280;DHT22;22317;47.936;12.742;2023-01-04T14:03:51;8.20;54.30
36280;DHT22;22317;47.936;12.742;2023-01-04T14:06:33;8.30;54.40
36280;DHT22;22317;47.936;12.742;2023-01-04T14:09:11;8.30;54.40
36280;DHT22;22317;47.936;12.742;2023-01-04T14:11:50;8.30;54.40
36280;DHT22;22317;47.936;12.742;2023-01-04T14:14:52;8.30;54.40
36280;DHT22;22317;47.936;12.742;2023-01-04T14:17:33;8.30;54.40
36280;DHT22;22317;47.936;12.742;2023-01-04T14:20:03;8.30;54.40
36280;DHT22;22317;47.936;12.742;2023-01-04T14:30:46;8.30;54.60
36280;DHT22;22317;47.936;12.742;2023-01-04T14:33:21;8.30;54.70
36280;DHT22;22317;47.936;12.742;2023-01-04T14:43:52;8.20;55.20
36280;DHT22;22317;47.936;12.742;2023-01-04T14:46:28;8.20;55.30
36280;DHT22;22317;47.936;12.742;2023-01-04T14:48:54;8.20;55.40
36280;DHT22;22317;47.936;12.742;2023-01-04T14:51:25;8.10;55.50
36280;DHT22;22317;47.936;12.742;2023-01-04T14:53:55;8.10;55.70
36280;DHT22;22317;47.936;12.742;2023-01-04T14:56:20;8.10;55.80
36280;DHT22;22317;47.936;12.742;2023-01-04T14:58:46;8.10;56.00
36280;DHT22;22317;47.936;12.742;2023-01-04T15:01:12;8.10;56.10
36280;DHT22;22317;47.936;12.742;2023-01-04T15:03:37;8.00;56.20
36280;DHT22;22317;47.936;12.742;2023-01-04T15:06:04;8.00;56.40
36280;DHT22;22317;47.936;12.742;2023-01-04T15:08:30;8.00;56.40
36280;DHT22;22317;47.936;12.742;2023-01-04T15:10:56;8.00;56.60
36280;DHT22;22317;47.936;12.742;2023-01-04T15:13:22;7.90;56.60
36280;DHT22;22317;47.936;12.742;2023-01-04T15:15:48;7.90;56.80
36280;DHT22;22317;47.936;12.742;2023-01-04T15:18:16;7.90;56.80
36280;DHT22;22317;47.936;12.742;2023-01-04T15:20:42;7.90;57.00
36280;DHT22;22317;47.936;12.742;2023-01-04T15:23:08;7.90;57.10
36280;DHT22;22317;47.936;12.742;2023-01-04T15:25:34;7.90;57.10
36280;DHT22;22317;47.936;12.742;2023-01-04T15:27:59;7.90;57.20
36280;DHT22;22317;47.936;12.742;2023-01-04T15:30:25;7.90;57.30
36280;DHT22;22317;47.936;12.742;2023-01-04T15:32:51;9.20;57.90
36280;DHT22;22317;47.936;12.742;2023-01-04T15:35:17;7.90;57.40
36280;DHT22;22317;47.936;12.742;2023-01-04T15:37:44;7.80;57.30
36280;DHT22;22317;47.936;12.742;2023-01-04T15:40:11;7.80;57.40
36280;DHT22;22317;47.936;12.742;2023-01-04T15:42:37;7.80;57.50
36280;DHT22;22317;47.936;12.742;2023-01-04T15:45:21;7.80;57.60
36280;DHT22;22317;47.936;12.742;2023-01-04T15:47:49;7.70;57.60
36280;DHT22;22317;47.936;12.742;2023-01-04T15:50:15;7.70;57.60
36280;DHT22;22317;47.936;12.742;2023-01-04T15:52:41;7.70;57.70
36280;DHT22;22317;47.936;12.742;2023-01-04T15:55:07;7.60;57.70
36280;DHT22;22317;47.936;12.742;2023-01-04T15:57:33;7.60;57.80
36280;DHT22;22317;47.936;12.742;2023-01-04T15:59:59;7.60;58.00
36280;DHT22;22317;47.936;12.742;2023-01-04T16:02:25;7.50;58.10
36280;DHT22;22317;47.936;12.742;2023-01-04T16:04:51;7.50;58.20
36280;DHT22;22317;47.936;12.742;2023-01-04T16:07:17;7.50;58.30
36280;DHT22;22317;47.936;12.742;2023-01-04T16:09:43;7.50;58.30
36280;DHT22;22317;47.936;12.742;2023-01-04T16:12:09;7.50;58.40
36280;DHT22;22317;47.936;12.742;2023-01-04T16:14:53;7.50;58.40
36280;DHT22;22317;47.936;12.742;2023-01-04T16:17:19;7.50;58.20
36280;DHT22;22317;47.936;12.742;2023-01-04T16:19:44;7.50;58.00
36280;DHT22;22317;47.936;12.742;2023-01-04T16:22:10;7.50;57.80
36280;DHT22;22317;47.936;12.742;2023-01-04T16:24:36;7.40;57.60
36280;DHT22;22317;47.936;12.742;2023-01-04T16:27:01;7.40;57.40
36280;DHT22;22317;47.936;12.742;2023-01-04T16:29:27;7.40;57.20
36280;DHT22;22317;47.936;12.742;2023-01-04T16:31:53;7.40;57.10
36280;DHT22;22317;47.936;12.742;2023-01-04T16:34:19;7.40;57.10
36280;DHT22;22317;47.936;12.742;2023-01-04T16:36:47;7.40;56.90
36280;DHT22;22317;47.936;12.742;2023-01-04T16:39:13;7.40;56.60
36280;DHT22;22317;47.936;12.742;2023-01-04T16:41:39;7.40;56.40
36280;DHT22;22317;47.936;12.742;2023-01-04T16:44:05;7.40;56.20
36280;DHT22;22317;47.936;12.742;2023-01-04T16:46:35;7.40;56.00
36280;DHT22;22317;47.936;12.742;2023-01-04T16:49:07;7.40;55.80
36280;DHT22;22317;47.936;12.742;2023-01-04T16:51:35;7.40;55.40
36280;DHT22;22317;47.936;12.742;2023-01-04T16:54:03;7.40;55.20
36280;DHT22;22317;47.936;12.742;2023-01-04T16:56:30;7.30;55.00
36280;DHT22;22317;47.936;12.742;2023-01-04T16:58:56;7.30;54.90
36280;DHT22;22317;47.936;12.742;2023-01-04T17:01:27;7.30;54.70
36280;DHT22;22317;47.936;12.742;2023-01-04T17:03:56;7.30;54.50
36280;DHT22;22317;47.936;12.742;2023-01-04T17:06:24;7.30;54.40
36280;DHT22;22317;47.936;12.742;2023-01-04T17:08:52;7.30;54.90
36280;DHT22;22317;47.936;12.742;2023-01-04T17:11:20;7.30;54.20
36280;DHT22;22317;47.936;12.742;2023-01-04T17:13:46;7.30;53.90
36280;DHT22;22317;47.936;12.742;2023-01-04T17:16:13;7.30;53.90
36280;DHT22;22317;47.936;12.742;2023-01-04T17:18:39;7.20;53.70
36280;DHT22;22317;47.936;12.742;2023-01-04T17:21:09;7.30;53.60
36280;DHT22;22317;47.936;12.742;2023-01-04T17:23:38;7.20;53.40
36280;DHT22;22317;47.936;12.742;2023-01-04T17:26:10;7.20;53.30
36280;DHT22;22317;47.936;12.742;2023-01-04T17:28:37;7.20;53.20
36280;DHT22;22317;47.936;12.742;2023-01-04T17:31:09;7.20;53.30
36280;DHT22;22317;47.936;12.742;2023-01-04T17:33:35;7.20;53.20
36280;DHT22;22317;47.936;12.742;2023-01-04T17:36:06;7.20;53.10
36280;DHT22;22317;47.936;12.742;2023-01-04T17:38:32;7.20;53.00
36280;DHT22;22317;47.936;12.742;2023-01-04T17:41:14;7.20;53.00
36280;DHT22;22317;47.936;12.742;2023-01-04T17:43:42;7.20;52.80
36280;DHT22;22317;47.936;12.742;2023-01-04T17:46:13;7.20;52.70
36280;DHT22;22317;47.936;12.742;2023-01-04T17:48:39;7.30;52.70
36280;DHT22;22317;47.936;12.742;2023-01-04T17:51:12;7.30;52.60